Time;durP1;ratioP1;P1;durP2;ratioP2;P2;SDS_P1;SDS_P2;PMS_P1;PMS_P2;Temp;Humidity;BMP_temperature;BMP_pressure;BME280_temperature;BME280_humidity;BME280_pressure;Samples;Min_cycle;Max_cycle;Signal;HPM_P1;HPM_P2
2021/12/31 00:00:06;;;;;;;26.98;18.30;;;12.00;99.90;;;;;;4994000;28;20441;-75
2021/12/31 00:02:31;;;;;;;25.85;15.30;;;12.00;99.90;;;;;;4995174;28;20041;-74
2021/12/31 00:04:57;;;;;;;17.83;10.68;;;12.00;99.90;;;;;;4995454;28;20023;-75
2021/12/31 00:07:23;;;;;;;12.45;7.63;;;11.90;99.90;;;;;;4995034;28;20037;-73
2021/12/31 00:09:48;;;;;;;15.30;7.82;;;11.90;99.90;;;;;;4995109;28;20105;-77
2021/12/31 00:12:14;;;;;;;14.00;8.40;;;11.90;99.90;;;;;;4995071;28;20028;-75
2021/12/31 00:14:40;;;;;;;13.90;7.70;;;11.90;99.90;;;;;;4994966;28;20027;-77
2021/12/31 00:17:06;;;;;;;14.98;9.60;;;11.90;99.90;;;;;;4994912;28;20033;-74
2021/12/31 00:19:36;;;;;;;11.70;7.28;;;11.90;99.90;;;;;;4995006;28;20029;-74
2021/12/31 00:22:16;;;;;;;;;;;11.90;99.90;;;;;;4995624;28;20023;-75
2021/12/31 00:24:42;;;;;;;14.75;9.40;;;11.90;99.90;;;;;;4994922;28;19905;-74
2021/12/31 00:27:08;;;;;;;14.50;9.50;;;11.80;99.90;;;;;;4994754;28;20037;-73
2021/12/31 00:29:33;;;;;;;17.15;8.30;;;11.70;99.90;;;;;;4994697;28;20034;-77
2021/12/31 00:31:59;;;;;;;13.48;7.43;;;11.80;99.90;;;;;;4994592;28;20483;-75
2021/12/31 00:34:24;;;;;;;10.88;6.93;;;11.70;99.90;;;;;;4994638;28;20027;-77
2021/12/31 00:36:50;;;;;;;15.63;6.88;;;11.70;99.90;;;;;;4994591;28;20435;-74
2021/12/31 00:39:16;;;;;;;11.50;6.50;;;11.70;99.90;;;;;;4994531;28;20479;-77
2021/12/31 00:41:42;;;;;;;14.65;6.57;;;11.70;99.90;;;;;;4994440;28;20065;-76
2021/12/31 00:44:09;;;;;;;13.40;6.38;;;11.70;99.90;;;;;;4994440;28;20046;-74
2021/12/31 00:46:36;;;;;;;9.95;6.28;;;11.60;99.90;;;;;;4994676;28;20054;-72
2021/12/31 00:49:03;;;;;;;12.82;5.93;;;11.70;99.90;;;;;;4994646;28;20086;-75
2021/12/31 00:51:30;;;;;;;13.93;7.72;;;11.60;99.90;;;;;;4994636;28;20064;-74
2021/12/31 00:53:55;;;;;;;11.32;6.53;;;11.60;99.90;;;;;;4994877;28;20026;-76
2021/12/31 00:56:21;;;;;;;13.18;6.65;;;11.50;99.90;;;;;;4994791;28;20077;-76
2021/12/31 00:58:47;;;;;;;14.82;7.10;;;11.60;99.90;;;;;;4994236;28;20105;-76
2021/12/31 01:01:18;;;;;;;15.18;7.50;;;11.60;99.90;;;;;;4994092;28;20553;-74
2021/12/31 01:03:44;;;;;;;;;;;11.60;99.90;;;;;;4994908;28;20101;-74
2021/12/31 01:06:09;;;;;;;12.50;7.30;;;11.50;99.90;;;;;;4994446;28;19910;-78
2021/12/31 01:08:36;;;;;;;13.98;7.63;;;11.30;99.90;;;;;;4993675;28;20037;-75
2021/12/31 01:11:04;;;;;;;13.73;7.70;;;11.10;99.90;;;;;;4994065;28;20018;-75
2021/12/31 01:13:36;;;;;;;11.05;7.03;;;11.00;99.90;;;;;;4994030;28;20019;-74
2021/12/31 01:16:03;;;;;;;15.13;8.60;;;10.90;99.90;;;;;;4994310;28;20475;-76
2021/12/31 01:21:16;;;;;;;14.15;7.45;;;10.80;99.90;;;;;;4992841;28;20058;-75
2021/12/31 01:23:42;;;;;;;12.30;7.22;;;10.80;99.90;;;;;;4993888;28;20022;-74
2021/12/31 01:26:07;;;;;;;17.95;7.90;;;10.80;99.90;;;;;;4993911;28;20380;-77
2021/12/31 01:28:33;;;;;;;12.88;6.50;;;10.70;99.90;;;;;;4993810;28;20029;-74
2021/12/31 01:30:59;;;;;;;11.57;6.47;;;10.70;99.90;;;;;;4994138;28;20031;-77
2021/12/31 01:33:25;;;;;;;14.05;6.63;;;10.70;99.90;;;;;;4993863;28;20033;-76
2021/12/31 01:35:51;;;;;;;11.27;6.10;;;10.80;99.90;;;;;;4994065;28;20024;-75
2021/12/31 01:38:17;;;;;;;14.20;7.15;;;10.80;99.90;;;;;;4994037;28;20023;-75
2021/12/31 01:40:43;;;;;;;13.57;6.28;;;10.90;99.90;;;;;;4993908;28;20029;-78
2021/12/31 01:43:11;;;;;;;11.98;6.10;;;10.90;99.90;;;;;;4993747;28;20034;-76
2021/12/31 01:45:43;;;;;;;14.18;7.15;;;11.00;99.90;;;;;;4993257;28;20050;-74
2021/12/31 01:48:23;;;;;;;10.85;5.20;;;11.00;99.90;;;;;;4993687;28;20395;-75
2021/12/31 01:50:49;;;;;;;12.88;5.95;;;11.00;99.90;;;;;;4992208;28;20414;-75
2021/12/31 01:53:16;;;;;;;15.23;6.55;;;11.10;99.90;;;;;;4992385;28;20507;-78
2021/12/31 01:55:42;;;;;;;14.18;6.63;;;11.20;99.90;;;;;;4993683;28;20022;-78
2021/12/31 01:58:09;;;;;;;14.68;6.00;;;11.30;99.90;;;;;;4993624;28;20160;-75
2021/12/31 02:00:36;;;;;;;9.75;4.90;;;11.30;99.90;;;;;;4993654;28;20022;-75
2021/12/31 02:03:04;;;;;;;20.50;8.00;;;11.20;99.90;;;;;;4993892;28;20033;-75
2021/12/31 02:05:30;;;;;;;18.42;7.80;;;11.30;99.90;;;;;;4993593;28;20061;-78
2021/12/31 02:08:00;;;;;;;12.55;5.43;;;11.30;99.90;;;;;;4993739;28;20070;-75
2021/12/31 02:10:26;;;;;;;14.17;5.40;;;11.40;99.90;;;;;;4993589;28;20027;-78
2021/12/31 02:12:53;;;;;;;12.60;5.88;;;11.50;99.90;;;;;;4993752;28;20077;-77
2021/12/31 02:15:20;;;;;;;15.80;5.50;;;11.60;99.90;;;;;;4993798;28;20078;-78
2021/12/31 02:17:48;;;;;;;11.40;5.53;;;11.60;99.90;;;;;;4992208;28;20030;-76
2021/12/31 02:20:15;;;;;;;14.05;8.05;;;11.60;99.90;;;;;;4994890;28;20085;-77
2021/12/31 02:22:54;;;;;;;13.73;7.97;;;11.50;99.90;;;;;;4995837;28;20026;-74
2021/12/31 02:25:22;;;;;;;12.27;3.88;;;11.50;99.90;;;;;;4995562;28;20034;-74
2021/12/31 02:27:48;;;;;;;15.82;5.38;;;11.40;99.90;;;;;;4996915;28;20022;-73
2021/12/31 02:30:14;;;;;;;11.75;5.70;;;11.40;99.90;;;;;;4996971;28;20368;-76
2021/12/31 02:32:39;;;;;;;12.75;6.28;;;11.40;99.90;;;;;;4996921;28;20018;-75
2021/12/31 02:35:07;;;;;;;10.38;6.20;;;11.40;99.90;;;;;;4997394;28;20072;-74
2021/12/31 02:37:33;;;;;;;12.65;4.93;;;11.40;99.90;;;;;;4995566;28;20026;-76
2021/12/31 02:40:03;;;;;;;13.07;5.78;;;11.40;99.90;;;;;;4996735;28;20391;-76
2021/12/31 02:42:29;;;;;;;19.52;6.05;;;11.40;99.90;;;;;;4997030;28;20474;-73
2021/12/31 02:44:56;;;;;;;11.70;5.28;;;11.30;99.90;;;;;;4996474;28;20043;-75
2021/12/31 02:47:21;;;;;;;12.88;6.10;;;11.10;99.90;;;;;;4995319;28;20026;-75
2021/12/31 02:49:48;;;;;;;13.20;7.30;;;11.00;99.90;;;;;;4995295;28;20475;-76
2021/12/31 02:52:16;;;;;;;13.70;7.75;;;10.80;99.90;;;;;;4996532;28;20018;-74
2021/12/31 02:54:46;;;;;;;13.07;7.00;;;10.70;99.90;;;;;;4996517;28;20026;-76
2021/12/31 02:57:13;;;;;;;15.90;6.68;;;10.60;99.90;;;;;;4996562;28;20030;-76
2021/12/31 02:59:40;;;;;;;12.50;6.20;;;10.60;99.90;;;;;;4996427;28;20057;-74
2021/12/31 03:02:07;;;;;;;12.82;6.35;;;10.70;99.90;;;;;;4995106;28;20426;-76
2021/12/31 03:04:38;;;;;;;15.68;6.68;;;10.80;99.90;;;;;;4996343;28;20084;-73
2021/12/31 03:07:06;;;;;;;13.15;7.22;;;10.90;99.90;;;;;;4996584;28;20085;-76
2021/12/31 03:09:33;;;;;;;11.23;5.55;;;10.90;99.90;;;;;;4996192;28;20498;-76
2021/12/31 03:12:00;;;;;;;9.93;5.10;;;10.80;99.90;;;;;;4996207;28;20054;-74
2021/12/31 03:14:26;;;;;;;12.77;6.45;;;10.90;99.90;;;;;;4996116;28;20041;-77
2021/12/31 03:16:52;;;;;;;13.73;5.05;;;10.90;99.90;;;;;;4996117;28;20018;-77
2021/12/31 03:19:20;;;;;;;9.07;5.72;;;10.90;99.90;;;;;;4995960;28;20034;-74
2021/12/31 03:21:46;;;;;;;11.23;5.15;;;11.00;99.90;;;;;;4995898;28;20029;-73
2021/12/31 03:24:12;;;;;;;11.23;5.80;;;10.90;99.90;;;;;;4995854;28;20035;-73
2021/12/31 03:26:37;;;;;;;13.20;4.95;;;10.90;99.90;;;;;;4995865;28;20109;-74
2021/12/31 03:29:03;;;;;;;12.57;5.85;;;10.90;99.90;;;;;;4995985;28;20383;-77
2021/12/31 03:31:28;;;;;;;10.23;5.55;;;10.80;99.90;;;;;;4995547;28;20037;-76
2021/12/31 03:33:54;;;;;;;12.10;5.53;;;10.80;99.90;;;;;;4996022;28;20112;-77
2021/12/31 03:36:20;;;;;;;10.45;5.57;;;10.90;99.90;;;;;;4996184;28;20073;-74
2021/12/31 03:38:46;;;;;;;9.05;5.30;;;10.80;99.90;;;;;;4995866;28;20038;-78
2021/12/31 03:41:12;;;;;;;8.90;4.82;;;10.80;99.90;;;;;;4995761;28;20479;-76
2021/12/31 03:43:37;;;;;;;9.90;4.70;;;10.80;99.90;;;;;;4995386;28;20030;-75
2021/12/31 03:46:03;;;;;;;9.35;5.40;;;10.90;99.90;;;;;;4995613;28;20495;-76
2021/12/31 03:48:29;;;;;;;10.15;5.20;;;10.80;99.90;;;;;;4995424;28;20105;-76
2021/12/31 03:50:55;;;;;;;8.52;5.25;;;10.60;99.90;;;;;;4995459;28;20022;-72
2021/12/31 03:53:20;;;;;;;7.43;5.07;;;10.60;99.90;;;;;;4995440;28;20037;-75
2021/12/31 03:55:47;;;;;;;10.18;5.57;;;10.70;99.90;;;;;;4995426;28;20485;-75
2021/12/31 03:58:13;;;;;;;9.27;5.63;;;10.80;99.90;;;;;;4995624;28;20118;-75
2021/12/31 04:00:39;;;;;;;10.13;5.57;;;10.80;99.90;;;;;;4995336;28;20029;-76
2021/12/31 04:03:10;;;;;;;7.35;5.07;;;10.80;99.90;;;;;;4995300;28;20026;-76
2021/12/31 04:05:37;;;;;;;8.13;5.43;;;10.90;99.90;;;;;;4995525;28;20649;-76
2021/12/31 04:08:04;;;;;;;9.55;5.57;;;10.90;99.90;;;;;;4995365;28;20433;-77
2021/12/31 04:10:30;;;;;;;9.18;5.25;;;10.80;99.90;;;;;;4995111;28;20097;-77
2021/12/31 04:12:56;;;;;;;8.38;5.25;;;10.80;99.90;;;;;;4995583;28;20165;-76
2021/12/31 04:15:22;;;;;;;9.20;4.93;;;10.80;99.90;;;;;;4995575;28;20057;-78
2021/12/31 04:17:47;;;;;;;12.63;5.40;;;10.80;99.90;;;;;;4995004;28;20027;-77
2021/12/31 04:20:31;;;;;;;9.52;5.50;;;10.90;99.90;;;;;;4995233;28;20029;-75
2021/12/31 04:22:58;;;;;;;14.18;5.78;;;11.00;99.90;;;;;;4995134;28;20382;-76
2021/12/31 04:25:24;;;;;;;15.20;6.82;;;11.00;99.90;;;;;;4993543;28;20080;-76
2021/12/31 04:27:51;;;;;;;13.95;6.70;;;11.10;99.90;;;;;;4994721;28;20446;-76
2021/12/31 04:30:16;;;;;;;11.40;6.30;;;11.20;99.90;;;;;;4994712;28;20026;-74
2021/12/31 04:32:43;;;;;;;10.25;6.18;;;11.20;99.90;;;;;;4994694;28;20022;-75
2021/12/31 04:35:13;;;;;;;12.25;7.20;;;11.20;99.90;;;;;;4994672;28;20029;-76
2021/12/31 04:37:40;;;;;;;;;;;11.20;99.90;;;;;;4995649;28;20026;-74
2021/12/31 04:40:10;;;;;;;22.35;8.80;;;11.30;99.90;;;;;;4994510;28;19906;-77
2021/12/31 04:42:38;;;;;;;21.73;12.05;;;11.30;99.90;;;;;;4992723;28;20419;-75
2021/12/31 04:45:04;;;;;;;16.02;7.32;;;11.40;99.90;;;;;;4994303;28;20038;-76
2021/12/31 04:47:29;;;;;;;14.57;7.05;;;11.40;99.90;;;;;;4994397;28;20371;-76
2021/12/31 04:49:55;;;;;;;15.98;6.90;;;11.50;99.90;;;;;;4994387;28;20042;-75
2021/12/31 04:52:20;;;;;;;17.52;7.30;;;11.50;99.90;;;;;;4994619;28;20022;-75
2021/12/31 04:54:46;;;;;;;14.90;7.78;;;11.50;99.90;;;;;;4994331;28;20030;-75
2021/12/31 04:57:12;;;;;;;15.13;7.93;;;11.50;99.90;;;;;;4994259;28;20041;-74
2021/12/31 04:59:37;;;;;;;16.10;7.70;;;11.50;99.90;;;;;;4994195;28;20150;-76
2021/12/31 05:02:03;;;;;;;24.10;9.00;;;11.60;99.90;;;;;;4992970;28;20030;-77
2021/12/31 05:04:29;;;;;;;15.40;8.00;;;11.60;99.90;;;;;;4994670;28;20030;-73
2021/12/31 05:06:54;;;;;;;18.40;8.38;;;11.60;99.90;;;;;;4994421;28;20034;-75
2021/12/31 05:09:20;;;;;;;18.35;7.45;;;11.60;99.90;;;;;;4994070;28;20398;-75
2021/12/31 05:11:46;;;;;;;17.48;8.25;;;11.60;99.90;;;;;;4992824;28;20438;-75
2021/12/31 05:14:11;;;;;;;15.27;7.63;;;11.60;99.90;;;;;;4994042;28;20029;-73
2021/12/31 05:16:37;;;;;;;15.65;7.30;;;11.60;99.90;;;;;;4993998;28;20486;-75
2021/12/31 05:19:04;;;;;;;17.63;7.35;;;11.60;99.90;;;;;;4993966;28;20034;-77
2021/12/31 05:21:31;;;;;;;15.77;7.97;;;11.60;99.90;;;;;;4994014;28;20018;-75
2021/12/31 05:23:57;;;;;;;16.88;7.75;;;11.70;99.90;;;;;;4994178;28;20035;-75
2021/12/31 05:26:24;;;;;;;16.27;7.00;;;11.60;99.90;;;;;;4993873;28;20026;-75
2021/12/31 05:28:49;;;;;;;17.48;7.28;;;11.60;99.90;;;;;;4993785;28;20109;-77
2021/12/31 05:31:16;;;;;;;18.27;7.50;;;11.60;99.90;;;;;;4993880;28;20598;-77
2021/12/31 05:33:42;;;;;;;14.70;7.88;;;11.60;99.90;;;;;;4993814;28;20019;-74
2021/12/31 05:36:07;;;;;;;15.32;8.07;;;11.60;99.90;;;;;;4992541;28;20538;-75
2021/12/31 05:38:33;;;;;;;18.33;7.82;;;11.60;99.90;;;;;;4992510;28;20038;-75
2021/12/31 05:40:59;;;;;;;16.85;7.75;;;11.60;99.90;;;;;;4993654;28;20026;-75
2021/12/31 05:43:25;;;;;;;15.80;7.53;;;11.60;99.90;;;;;;4994068;28;20027;-74
2021/12/31 05:45:50;;;;;;;13.75;7.10;;;11.60;99.90;;;;;;4994044;28;20089;-75
2021/12/31 05:48:16;;;;;;;15.45;7.10;;;11.60;99.90;;;;;;4993924;28;20069;-73
2021/12/31 05:50:42;;;;;;;13.38;6.53;;;11.70;99.90;;;;;;4993969;28;20077;-77
2021/12/31 05:53:07;;;;;;;16.27;8.32;;;11.70;99.90;;;;;;4993703;28;20085;-73
2021/12/31 05:55:33;;;;;;;29.60;21.67;;;11.70;99.90;;;;;;4996024;28;20027;-76
2021/12/31 05:58:01;;;;;;;29.65;19.85;;;11.70;99.90;;;;;;4997575;28;20030;-77
2021/12/31 06:00:27;;;;;;;13.20;6.55;;;11.60;99.90;;;;;;4997503;28;20022;-76
2021/12/31 06:02:53;;;;;;;14.20;7.28;;;11.60;99.90;;;;;;4997463;28;20085;-74
2021/12/31 06:05:19;;;;;;;12.60;7.00;;;11.70;99.90;;;;;;4997405;28;20471;-76
2021/12/31 06:07:45;;;;;;;11.63;7.03;;;11.60;99.90;;;;;;4997840;28;20023;-77
2021/12/31 06:10:11;;;;;;;11.30;6.57;;;11.60;99.90;;;;;;4997367;28;20084;-76
2021/12/31 06:12:38;;;;;;;11.70;7.63;;;11.60;99.90;;;;;;4997282;28;20030;-76
2021/12/31 06:15:08;;;;;;;15.13;8.02;;;11.50;99.90;;;;;;4997235;28;20015;-75
2021/12/31 06:17:34;;;;;;;12.68;7.70;;;11.40;99.90;;;;;;4997501;28;20018;-78
2021/12/31 06:20:00;;;;;;;11.63;6.95;;;11.40;99.90;;;;;;4997729;28;20463;-74
2021/12/31 06:22:26;;;;;;;11.75;6.97;;;11.40;99.90;;;;;;4997136;28;20026;-73
2021/12/31 06:24:52;;;;;;;12.88;7.75;;;11.40;99.90;;;;;;4997084;28;20033;-74
2021/12/31 06:27:18;;;;;;;13.25;6.85;;;11.40;99.90;;;;;;4997331;28;20019;-73
2021/12/31 06:29:44;;;;;;;13.95;7.05;;;11.40;99.90;;;;;;4996993;28;20026;-73
2021/12/31 06:32:10;;;;;;;12.82;6.63;;;11.40;99.90;;;;;;4997229;28;20073;-77
2021/12/31 06:34:36;;;;;;;11.70;6.70;;;11.40;99.90;;;;;;4996886;28;20097;-73
2021/12/31 06:37:02;;;;;;;11.70;6.53;;;11.40;99.90;;;;;;4997148;28;20405;-74
2021/12/31 06:39:28;;;;;;;10.43;6.00;;;11.40;99.90;;;;;;4996828;28;20461;-76
2021/12/31 06:41:54;;;;;;;9.85;5.95;;;11.40;99.90;;;;;;4997028;28;20107;-75
2021/12/31 06:44:20;;;;;;;10.15;5.72;;;11.50;99.90;;;;;;4996546;28;20054;-77
2021/12/31 06:46:46;;;;;;;12.65;6.72;;;11.50;99.90;;;;;;4997000;28;20033;-74
2021/12/31 06:49:12;;;;;;;11.80;6.35;;;11.50;99.90;;;;;;4996826;28;20031;-72
2021/12/31 06:51:38;;;;;;;12.65;7.13;;;11.50;99.90;;;;;;4996870;28;20031;-78
2021/12/31 06:54:03;;;;;;;13.90;6.38;;;11.60;99.90;;;;;;4996561;28;20498;-74
2021/12/31 06:56:29;;;;;;;11.25;5.93;;;11.60;99.90;;;;;;4996512;28;20057;-74
2021/12/31 06:58:54;;;;;;;11.95;6.93;;;11.60;99.90;;;;;;4996461;28;20030;-74
2021/12/31 07:01:21;;;;;;;17.20;10.15;;;11.60;99.90;;;;;;4996414;28;20025;-76
2021/12/31 07:03:46;;;;;;;17.38;14.77;;;11.60;99.90;;;;;;4996368;28;20030;-74
2021/12/31 07:06:12;;;;;;;16.10;11.23;;;11.60;99.90;;;;;;4995846;28;20049;-74
2021/12/31 07:08:38;;;;;;;12.32;6.40;;;11.60;99.90;;;;;;4996275;28;20054;-76
2021/12/31 07:11:04;;;;;;;13.95;6.63;;;11.60;99.90;;;;;;4996813;28;20073;-75
2021/12/31 07:13:30;;;;;;;14.15;11.80;;;11.60;99.90;;;;;;4996160;28;20475;-75
2021/12/31 07:15:56;;;;;;;14.38;7.70;;;11.60;99.90;;;;;;4996156;28;20029;-74
2021/12/31 07:18:23;;;;;;;16.88;12.65;;;11.50;99.90;;;;;;4996080;28;20162;-74
2021/12/31 07:20:49;;;;;;;14.63;10.52;;;11.50;99.90;;;;;;4996067;28;20037;-75
2021/12/31 07:23:17;;;;;;;15.25;11.15;;;11.40;99.90;;;;;;4996592;28;20027;-77
2021/12/31 07:25:43;;;;;;;17.48;13.18;;;11.40;99.90;;;;;;4996572;28;20026;-76
2021/12/31 07:28:10;;;;;;;12.05;8.77;;;11.40;99.90;;;;;;4996167;28;20050;-74
2021/12/31 07:30:38;;;;;;;15.85;7.93;;;11.30;99.90;;;;;;4996455;28;20072;-76
2021/12/31 07:33:05;;;;;;;16.63;10.93;;;11.30;99.90;;;;;;4994591;28;20483;-75
2021/12/31 07:35:31;;;;;;;16.13;11.93;;;11.30;99.90;;;;;;4994597;28;20128;-75
2021/12/31 07:37:58;;;;;;;13.70;10.63;;;11.30;99.90;;;;;;4995784;28;20087;-78
2021/12/31 07:40:28;;;;;;;15.15;9.30;;;11.30;99.90;;;;;;4994396;28;20026;-76
2021/12/31 07:42:54;;;;;;;13.50;9.38;;;11.30;99.90;;;;;;4995965;28;20019;-73
2021/12/31 07:45:20;;;;;;;14.98;9.75;;;11.30;99.90;;;;;;4994131;28;20137;-75
2021/12/31 07:47:46;;;;;;;15.15;9.07;;;11.30;99.90;;;;;;4995494;28;20035;-76
2021/12/31 07:50:11;;;;;;;29.13;19.50;;;11.40;99.90;;;;;;4995530;28;20026;-73
2021/12/31 07:52:38;;;;;;;31.25;20.83;;;11.40;99.90;;;;;;4995489;28;20033;-74
2021/12/31 07:55:05;;;;;;;21.85;13.90;;;11.40;99.90;;;;;;4995477;28;20025;-74
2021/12/31 07:57:30;;;;;;;23.08;14.75;;;11.40;99.90;;;;;;4995390;28;20019;-76
2021/12/31 07:59:56;;;;;;;17.42;10.95;;;11.40;99.90;;;;;;4995357;28;20426;-74
2021/12/31 08:02:21;;;;;;;15.70;9.43;;;11.40;99.90;;;;;;4995340;28;20482;-75
2021/12/31 08:04:47;;;;;;;23.15;15.25;;;11.50;99.90;;;;;;4995257;28;20022;-76
2021/12/31 08:07:13;;;;;;;19.05;9.85;;;11.50;99.90;;;;;;4995219;28;20022;-75
2021/12/31 08:09:38;;;;;;;14.27;10.73;;;11.50;99.90;;;;;;4995343;28;20383;-76
2021/12/31 08:12:04;;;;;;;12.10;7.57;;;11.50;99.90;;;;;;4995385;28;20034;-74
2021/12/31 08:14:30;;;;;;;16.08;7.80;;;11.50;99.90;;;;;;4995011;28;20622;-76
2021/12/31 08:16:56;;;;;;;12.93;8.38;;;11.60;99.90;;;;;;4994513;28;20101;-75
2021/12/31 08:19:22;;;;;;;21.30;18.38;;;11.60;99.90;;;;;;4994588;28;20049;-78
2021/12/31 08:21:47;;;;;;;18.63;9.73;;;11.60;99.90;;;;;;4995241;28;20026;-75
2021/12/31 08:24:13;;;;;;;15.82;9.32;;;11.60;99.90;;;;;;4994872;28;20025;-74
2021/12/31 08:26:39;;;;;;;14.60;8.80;;;11.60;99.90;;;;;;4994777;28;20030;-76
2021/12/31 08:29:05;;;;;;;15.88;9.05;;;11.60;99.90;;;;;;4994715;28;20105;-75
2021/12/31 08:31:31;;;;;;;15.77;9.07;;;11.60;99.90;;;;;;4994704;28;20081;-73
2021/12/31 08:33:57;;;;;;;14.10;7.45;;;11.70;99.90;;;;;;4994935;28;20018;-76
2021/12/31 08:36:22;;;;;;;17.38;9.10;;;11.70;99.90;;;;;;4994610;28;20474;-75
2021/12/31 08:38:48;;;;;;;16.40;10.18;;;11.80;99.90;;;;;;4994636;28;20028;-76
2021/12/31 08:41:14;;;;;;;14.70;8.57;;;11.80;99.90;;;;;;4994520;28;20545;-73
2021/12/31 08:43:39;;;;;;;17.10;8.80;;;11.90;99.90;;;;;;4994547;28;20047;-76
2021/12/31 08:46:05;;;;;;;34.03;19.45;;;11.90;99.90;;;;;;4994738;28;20073;-75
2021/12/31 08:48:31;;;;;;;23.20;11.82;;;11.90;99.90;;;;;;4994348;28;20065;-77
2021/12/31 08:50:56;;;;;;;17.40;9.63;;;11.90;99.90;;;;;;4994445;28;20026;-74
2021/12/31 08:53:22;;;;;;;20.45;12.85;;;11.90;99.90;;;;;;4994428;28;20026;-74
2021/12/31 08:55:48;;;;;;;20.13;14.40;;;11.90;99.90;;;;;;4994607;28;20482;-76
2021/12/31 08:58:14;;;;;;;16.20;9.35;;;12.00;99.90;;;;;;4994336;28;20050;-75
2021/12/31 09:00:39;;;;;;;16.00;8.70;;;11.90;99.90;;;;;;4994279;28;20462;-73
2021/12/31 09:03:05;;;;;;;16.73;8.77;;;11.90;99.90;;;;;;4992954;28;20034;-73
2021/12/31 09:05:33;;;;;;;14.25;9.30;;;11.90;99.90;;;;;;4992956;28;20077;-77
2021/12/31 09:07:58;;;;;;;13.38;8.55;;;11.90;99.90;;;;;;4994052;28;20020;-75
2021/12/31 09:10:24;;;;;;;14.65;8.32;;;11.90;99.90;;;;;;4994070;28;20030;-74
2021/12/31 09:12:50;;;;;;;16.23;9.88;;;11.90;99.90;;;;;;4994357;28;20015;-75
2021/12/31 09:15:17;;;;;;;13.45;8.05;;;11.90;99.90;;;;;;4994028;28;20029;-75
2021/12/31 09:17:44;;;;;;;15.93;8.82;;;11.90;99.90;;;;;;4994005;28;20022;-78
2021/12/31 09:20:10;;;;;;;17.45;10.13;;;11.90;99.90;;;;;;4994585;28;20042;-75
2021/12/31 09:22:36;;;;;;;22.50;14.43;;;12.00;99.90;;;;;;4993995;28;20487;-74
2021/12/31 09:25:03;;;;;;;26.63;16.88;;;12.00;99.90;;;;;;4993910;28;20110;-74
2021/12/31 09:27:29;;;;;;;30.38;21.35;;;12.10;99.90;;;;;;4993915;28;20110;-77
2021/12/31 09:29:55;;;;;;;27.05;17.70;;;12.10;99.90;;;;;;4993877;28;20061;-78
2021/12/31 09:32:21;;;;;;;22.67;13.63;;;12.10;99.90;;;;;;4992690;28;20511;-76
2021/12/31 09:34:48;;;;;;;19.70;14.13;;;12.20;99.90;;;;;;4993895;28;20031;-75
2021/12/31 09:37:14;;;;;;;21.30;14.88;;;12.20;99.90;;;;;;4993873;28;20129;-77
2021/12/31 09:39:40;;;;;;;25.42;20.67;;;12.20;99.90;;;;;;4993611;28;20035;-73
2021/12/31 09:42:07;;;;;;;18.65;13.50;;;12.20;99.90;;;;;;4993837;28;20104;-78
2021/12/31 09:44:34;;;;;;;21.92;14.23;;;12.20;99.90;;;;;;4993591;28;20055;-74
2021/12/31 09:47:00;;;;;;;16.63;11.02;;;12.20;99.90;;;;;;4990623;28;20498;-74
2021/12/31 09:49:26;;;;;;;18.63;15.25;;;12.30;99.90;;;;;;4993685;28;20527;-77
2021/12/31 09:51:51;;;;;;;18.58;12.48;;;12.30;99.90;;;;;;4994019;28;20018;-75
2021/12/31 09:54:21;;;;;;;14.32;8.90;;;12.40;99.90;;;;;;4993687;28;20080;-74
2021/12/31 09:56:49;;;;;;;20.70;13.70;;;12.40;99.90;;;;;;4994005;28;20020;-77
2021/12/31 09:59:14;;;;;;;27.63;13.98;;;12.40;99.90;;;;;;4993657;28;20133;-74
2021/12/31 10:01:45;;;;;;;18.75;11.07;;;12.30;99.90;;;;;;4993650;28;20494;-74
2021/12/31 10:04:10;;;;;;;;;;;12.30;99.90;;;;;;4994816;28;20026;-75
2021/12/31 10:06:36;;;;;;;11.82;7.50;;;12.30;99.90;;;;;;4993548;28;20366;-77
2021/12/31 10:09:03;;;;;;;17.23;10.25;;;12.40;99.90;;;;;;4993753;28;20029;-78
2021/12/31 10:11:28;;;;;;;14.13;8.45;;;12.40;99.90;;;;;;4993541;28;20026;-74
2021/12/31 10:13:55;;;;;;;14.23;8.35;;;12.40;99.90;;;;;;4993491;28;20034;-75
2021/12/31 10:16:29;;;;;;;21.77;11.63;;;12.40;99.90;;;;;;4993337;28;20027;-73
2021/12/31 10:19:06;;;;;;;14.48;8.65;;;12.40;99.90;;;;;;4993769;28;20030;-76
2021/12/31 10:21:41;;;;;;;17.00;9.57;;;12.40;99.90;;;;;;4992215;28;20034;-73
2021/12/31 10:24:32;;;;;;;16.92;8.55;;;12.40;99.90;;;;;;4991912;28;20455;-76
2021/12/31 10:27:10;;;;;;;16.30;7.68;;;12.50;99.90;;;;;;4993682;28;20029;-74
2021/12/31 10:29:54;;;;;;;19.88;9.48;;;12.50;99.90;;;;;;4993604;28;20364;-76
2021/12/31 10:32:22;;;;;;;13.63;8.18;;;12.50;99.90;;;;;;4993316;28;20033;-74
2021/12/31 10:34:48;;;;;;;14.70;8.02;;;12.50;99.90;;;;;;4992204;28;20018;-76
2021/12/31 10:37:19;;;;;;;14.73;8.77;;;12.50;99.90;;;;;;4993339;28;20157;-74
2021/12/31 10:39:55;;;;;;;16.60;9.02;;;12.50;99.90;;;;;;4993339;28;20030;-75
2021/12/31 10:42:31;;;;;;;14.27;8.60;;;12.50;99.90;;;;;;4996283;28;20022;-76
2021/12/31 10:44:57;;;;;;;17.40;8.18;;;12.50;99.90;;;;;;4996754;28;20061;-75
2021/12/31 10:47:42;;;;;;;15.32;10.07;;;12.50;99.90;;;;;;4996735;28;20026;-74
2021/12/31 10:50:13;;;;;;;14.63;8.50;;;12.50;99.90;;;;;;4996987;28;20072;-74
2021/12/31 10:52:57;;;;;;;18.98;9.57;;;12.60;99.90;;;;;;4996630;28;20606;-74
2021/12/31 10:55:29;;;;;;;19.05;8.75;;;12.60;99.90;;;;;;4996879;28;20126;-74
2021/12/31 10:58:03;;;;;;;18.90;9.10;;;12.70;99.90;;;;;;4996843;28;20105;-74
2021/12/31 11:00:35;;;;;;;20.05;8.82;;;12.70;99.90;;;;;;4996523;28;20230;-75
2021/12/31 11:03:02;;;;;;;15.05;8.75;;;12.70;99.90;;;;;;4996666;28;20482;-74
2021/12/31 11:05:28;;;;;;;17.27;9.18;;;12.80;99.90;;;;;;4996358;28;20026;-75
2021/12/31 11:07:57;;;;;;;17.38;9.02;;;12.80;99.90;;;;;;4996249;28;20046;-75
2021/12/31 11:10:30;;;;;;;20.92;9.75;;;12.80;99.90;;;;;;4996593;28;20038;-74
2021/12/31 11:12:56;;;;;;;22.25;10.63;;;12.80;99.90;;;;;;4996796;28;20108;-75
2021/12/31 11:15:22;;;;;;;21.48;10.45;;;12.90;99.90;;;;;;4996494;28;20027;-75
2021/12/31 11:17:52;;;;;;;21.33;10.00;;;12.90;99.90;;;;;;4996160;28;20065;-75
2021/12/31 11:20:22;;;;;;;19.63;10.23;;;13.00;99.90;;;;;;4996202;28;20092;-74
2021/12/31 11:22:48;;;;;;;15.68;9.05;;;13.00;99.90;;;;;;4996389;28;20018;-76
2021/12/31 11:25:24;;;;;;;21.20;10.57;;;13.10;99.90;;;;;;4996037;28;20426;-75
2021/12/31 11:27:51;;;;;;;18.77;11.05;;;13.10;99.90;;;;;;4995911;28;20505;-76
2021/12/31 11:30:40;;;;;;;20.08;10.27;;;13.10;99.90;;;;;;4995910;28;20054;-75
2021/12/31 11:33:06;;;;;;;20.98;10.77;;;13.10;99.90;;;;;;4996511;28;20026;-74
2021/12/31 11:36:02;;;;;;;20.45;11.15;;;13.20;99.90;;;;;;4995863;28;20030;-74
2021/12/31 11:38:28;;;;;;;18.20;11.07;;;13.20;99.90;;;;;;4996116;28;20037;-76
2021/12/31 11:41:11;;;;;;;22.42;10.82;;;13.30;99.90;;;;;;4995871;28;20026;-75
2021/12/31 11:43:39;;;;;;;22.30;11.48;;;13.30;99.90;;;;;;4995952;28;20037;-75
2021/12/31 11:46:12;;;;;;;31.88;20.88;;;13.40;99.90;;;;;;4996254;28;20077;-75
2021/12/31 11:48:57;;;;;;;23.27;10.93;;;13.40;99.90;;;;;;4995549;28;20023;-75
2021/12/31 11:51:35;;;;;;;25.83;11.82;;;13.50;99.90;;;;;;4995785;28;20023;-76
2021/12/31 11:54:00;;;;;;;17.52;9.98;;;13.50;99.90;;;;;;4995802;28;20098;-75
2021/12/31 11:56:45;;;;;;;26.45;12.57;;;13.60;99.90;;;;;;4995438;28;20153;-76
2021/12/31 11:59:11;;;;;;;17.83;8.90;;;13.60;99.90;;;;;;4995695;28;20018;-75
2021/12/31 12:01:37;;;;;;;19.23;8.85;;;13.60;99.90;;;;;;4995412;28;20034;-75
2021/12/31 12:04:22;;;;;;;22.75;9.98;;;13.60;99.90;;;;;;4995069;28;20027;-75
2021/12/31 12:07:01;;;;;;;20.02;10.32;;;13.70;99.90;;;;;;4995209;28;20034;-75
2021/12/31 12:09:35;;;;;;;20.65;10.77;;;13.70;99.90;;;;;;4995129;28;20453;-76
2021/12/31 12:12:05;;;;;;;35.00;21.38;;;13.80;99.90;;;;;;4995126;28;20080;-74
2021/12/31 12:14:46;;;;;;;20.20;11.07;;;13.80;99.90;;;;;;4995407;28;20030;-75
2021/12/31 12:17:13;;;;;;;21.23;10.82;;;13.80;99.90;;;;;;4995310;28;20073;-75
2021/12/31 12:19:50;;;;;;;24.10;12.77;;;13.80;99.90;;;;;;4994978;28;20026;-75
2021/12/31 12:22:53;;;;;;;18.55;8.70;;;13.90;99.90;;;;;;4994962;28;20049;-75
2021/12/31 12:25:31;;;;;;;20.88;11.32;;;13.90;99.90;;;;;;4974150;28;20097;-75
2021/12/31 12:28:07;;;;;;;25.25;12.02;;;13.90;99.90;;;;;;4995089;28;20030;-75
2021/12/31 12:30:44;;;;;;;23.17;10.98;;;13.90;99.90;;;;;;4995126;28;20052;-75
2021/12/31 12:35:39;;;;;;;18.27;10.38;;;14.00;99.90;;;;;;4994684;28;20026;-75
2021/12/31 12:38:12;;;;;;;16.55;8.13;;;14.00;99.90;;;;;;4994663;28;20038;-75
2021/12/31 12:40:58;;;;;;;23.55;10.25;;;14.00;99.90;;;;;;4994837;28;20030;-75
2021/12/31 12:43:32;;;;;;;21.10;8.23;;;14.10;99.90;;;;;;4994653;28;20073;-75